Time;durP1;ratioP1;P1;durP2;ratioP2;P2;SDS_P1;SDS_P2;PMS_P1;PMS_P2;Temp;Humidity;BMP_temperature;BMP_pressure;BME280_temperature;BME280_humidity;BME280_pressure;Samples;Min_cycle;Max_cycle;Signal;HPM_P1;HPM_P2
2023/04/23 00:01:38;;;;;;;11.13;8.25;;;13.50;99.90;;;;;;5002958;28;20195;-70
2023/04/23 00:04:05;;;;;;;11.95;8.48;;;13.60;99.90;;;;;;4990992;28;20183;-70
2023/04/23 00:06:37;;;;;;;9.25;8.07;;;13.50;99.90;;;;;;5001808;28;20186;-65
2023/04/23 00:09:06;;;;;;;9.30;8.23;;;13.50;99.90;;;;;;5003422;28;20199;-68
2023/04/23 00:11:32;;;;;;;10.45;8.45;;;13.50;99.90;;;;;;5001832;28;20248;-71
2023/04/23 00:13:58;;;;;;;8.43;7.40;;;13.40;99.90;;;;;;5002969;28;20184;-70
2023/04/23 00:16:24;;;;;;;9.25;8.02;;;13.40;99.90;;;;;;5007787;28;20221;-70
2023/04/23 00:18:50;;;;;;;9.88;8.48;;;13.40;99.90;;;;;;5017623;28;20198;-70
2023/04/23 00:21:16;;;;;;;10.70;8.48;;;13.40;99.90;;;;;;5000933;28;20189;-70
2023/04/23 00:23:41;;;;;;;10.77;9.07;;;13.50;99.90;;;;;;5000259;28;20372;-69
2023/04/23 00:26:07;;;;;;;10.15;8.68;;;13.40;99.90;;;;;;5019039;28;20179;-69
2023/04/23 00:28:32;;;;;;;10.02;8.43;;;13.40;99.90;;;;;;5005195;28;20194;-69
2023/04/23 00:30:58;;;;;;;10.80;8.82;;;13.40;99.90;;;;;;5005338;28;20206;-67
2023/04/23 00:33:24;;;;;;;11.23;9.18;;;13.40;99.90;;;;;;5017768;28;20171;-70
2023/04/23 00:35:49;;;;;;;10.50;8.60;;;13.40;99.90;;;;;;5017531;28;20221;-71
2023/04/23 00:38:15;;;;;;;10.43;8.85;;;13.40;99.90;;;;;;5017419;28;20203;-71
2023/04/23 00:40:41;;;;;;;10.38;8.88;;;13.50;99.90;;;;;;5016164;28;20183;-71
2023/04/23 00:43:08;;;;;;;8.93;7.97;;;13.50;99.90;;;;;;5002953;28;20186;-67
2023/04/23 00:45:34;;;;;;;9.30;8.20;;;13.50;99.90;;;;;;5006509;28;20186;-71
2023/04/23 00:48:01;;;;;;;10.57;8.80;;;13.50;99.90;;;;;;5001109;28;20266;-70
2023/04/23 00:50:26;;;;;;;9.45;8.45;;;13.50;99.90;;;;;;5009438;28;20213;-71
2023/04/23 00:52:52;;;;;;;10.25;8.70;;;13.50;99.90;;;;;;5012419;28;20167;-71
2023/04/23 00:55:19;;;;;;;13.23;8.73;;;13.50;99.90;;;;;;5013177;28;20174;-71
2023/04/23 00:57:46;;;;;;;11.23;8.95;;;13.50;99.90;;;;;;5006280;28;20186;-70
2023/04/23 01:00:13;;;;;;;10.82;9.20;;;13.50;99.90;;;;;;5005138;28;20186;-71
2023/04/23 01:02:40;;;;;;;11.70;9.07;;;13.50;99.90;;;;;;5007412;28;20190;-68
2023/04/23 01:05:08;;;;;;;9.70;8.68;;;13.50;99.90;;;;;;5022266;28;20228;-68
2023/04/23 01:07:35;;;;;;;11.32;8.90;;;13.50;99.90;;;;;;5000653;28;20266;-71
2023/04/23 01:10:04;;;;;;;10.45;9.18;;;13.50;99.90;;;;;;5005790;28;20209;-71
2023/04/23 01:12:30;;;;;;;10.35;8.82;;;13.50;99.90;;;;;;5006134;28;20515;-71
2023/04/23 01:15:00;;;;;;;10.00;8.90;;;13.50;99.90;;;;;;5000708;28;20189;-71
2023/04/23 01:17:29;;;;;;;10.40;8.52;;;13.50;99.90;;;;;;5012714;28;20270;-72
2023/04/23 01:19:55;;;;;;;11.20;9.00;;;13.50;99.90;;;;;;5014987;28;20218;-71
2023/04/23 01:22:23;;;;;;;11.60;9.13;;;13.40;99.90;;;;;;5015655;28;20206;-71
2023/04/23 01:24:49;;;;;;;10.43;8.90;;;13.50;99.90;;;;;;5000471;28;20210;-71
2023/04/23 01:27:19;;;;;;;12.50;9.35;;;13.40;99.90;;;;;;5017086;28;20206;-71
2023/04/23 01:29:46;;;;;;;9.98;8.82;;;13.40;99.90;;;;;;5016830;28;20210;-71
2023/04/23 01:32:12;;;;;;;11.75;9.73;;;13.40;99.90;;;;;;5023252;28;20481;-72
2023/04/23 01:34:40;;;;;;;11.65;9.52;;;13.30;99.90;;;;;;5010926;28;20201;-71
2023/04/23 01:37:06;;;;;;;12.85;10.18;;;13.30;99.90;;;;;;5000816;28;20174;-68
2023/04/23 01:39:32;;;;;;;13.10;10.07;;;13.20;99.90;;;;;;5021981;28;20184;-71
2023/04/23 01:41:59;;;;;;;12.68;10.13;;;13.20;99.90;;;;;;4997536;28;20214;-71
2023/04/23 01:44:27;;;;;;;11.35;9.88;;;13.20;99.90;;;;;;4999867;28;20186;-71
2023/04/23 01:46:56;;;;;;;11.48;9.93;;;13.10;99.90;;;;;;5000455;28;20174;-71
2023/04/23 01:49:24;;;;;;;11.70;10.07;;;13.10;99.90;;;;;;5012580;28;20206;-71
2023/04/23 01:51:49;;;;;;;12.70;10.07;;;13.20;99.90;;;;;;5000113;28;20236;-68
2023/04/23 01:54:15;;;;;;;12.77;10.73;;;13.10;99.90;;;;;;5016241;28;20269;-65
2023/04/23 01:56:43;;;;;;;12.07;10.35;;;13.10;99.90;;;;;;5005818;28;20211;-72
2023/04/23 01:59:11;;;;;;;13.90;10.25;;;13.10;99.90;;;;;;5000021;28;20183;-71
2023/04/23 02:01:47;;;;;;;13.40;11.23;;;13.10;99.90;;;;;;5009673;28;20174;-72
2023/04/23 02:04:19;;;;;;;14.43;11.05;;;13.00;99.90;;;;;;5000069;28;20178;-70
2023/04/23 02:06:48;;;;;;;14.07;11.32;;;13.00;99.90;;;;;;4992155;28;20178;-71
2023/04/23 02:09:16;;;;;;;12.95;10.82;;;13.00;99.90;;;;;;4996953;28;20207;-71
2023/04/23 02:11:42;;;;;;;14.60;11.50;;;13.00;99.90;;;;;;5000013;28;20371;-71
2023/04/23 02:14:08;;;;;;;13.85;11.35;;;12.90;99.90;;;;;;5016902;28;20186;-71
2023/04/23 02:16:33;;;;;;;13.40;10.68;;;12.90;99.90;;;;;;4999878;28;20210;-72
2023/04/23 02:19:00;;;;;;;14.40;11.43;;;12.90;99.90;;;;;;5013881;28;20845;-71
2023/04/23 02:21:28;;;;;;;13.25;10.48;;;12.80;99.90;;;;;;5010370;28;20242;-71
2023/04/23 02:23:56;;;;;;;13.02;10.73;;;12.90;99.90;;;;;;4999278;28;20224;-70
2023/04/23 02:26:24;;;;;;;13.25;10.85;;;12.90;99.90;;;;;;4979730;28;20277;-72
2023/04/23 02:28:50;;;;;;;13.70;11.30;;;12.90;99.90;;;;;;4994800;28;20234;-69
2023/04/23 02:31:16;;;;;;;14.50;11.35;;;12.90;99.90;;;;;;5016555;28;20542;-70
2023/04/23 02:33:42;;;;;;;13.65;10.98;;;12.90;99.90;;;;;;5003210;28;20245;-71
2023/04/23 02:36:11;;;;;;;13.50;10.88;;;12.90;99.90;;;;;;4999578;28;20175;-71
2023/04/23 02:38:36;;;;;;;13.75;11.23;;;12.90;99.90;;;;;;4996216;28;20191;-70
2023/04/23 02:41:02;;;;;;;13.95;11.27;;;12.90;99.90;;;;;;4997559;28;20194;-68
2023/04/23 02:43:28;;;;;;;13.95;11.35;;;12.80;99.90;;;;;;4980140;28;20171;-71
2023/04/23 02:45:56;;;;;;;14.70;12.07;;;12.90;99.90;;;;;;4980040;28;20195;-71
2023/04/23 02:48:21;;;;;;;14.80;12.55;;;12.80;99.90;;;;;;4981821;28;20236;-71
2023/04/23 02:50:47;;;;;;;15.65;11.90;;;12.80;99.90;;;;;;5003411;28;20289;-72
2023/04/23 02:53:15;;;;;;;14.90;11.77;;;12.80;99.90;;;;;;5003973;28;20202;-71
2023/04/23 02:55:41;;;;;;;16.15;11.85;;;12.90;99.90;;;;;;5004126;28;20174;-72
2023/04/23 02:58:06;;;;;;;15.70;11.77;;;12.80;99.90;;;;;;5009829;28;20175;-71
2023/04/23 03:00:32;;;;;;;14.05;11.57;;;12.80;99.90;;;;;;5010417;28;20270;-71
2023/04/23 03:02:58;;;;;;;14.40;11.30;;;12.80;99.90;;;;;;4999614;28;20351;-71
2023/04/23 03:05:25;;;;;;;13.55;11.18;;;12.70;99.90;;;;;;4999830;28;20197;-71
2023/04/23 03:07:54;;;;;;;14.02;11.65;;;12.70;99.90;;;;;;5015587;28;20206;-71
2023/04/23 03:10:22;;;;;;;13.73;11.35;;;12.70;99.90;;;;;;4998671;28;20198;-71
2023/04/23 03:12:48;;;;;;;13.63;11.07;;;12.60;99.90;;;;;;4999420;28;20173;-71
2023/04/23 03:15:13;;;;;;;12.00;10.70;;;12.60;99.90;;;;;;4995894;28;20172;-71
2023/04/23 03:17:39;;;;;;;14.07;11.23;;;12.60;99.90;;;;;;4995898;28;20179;-67
2023/04/23 03:20:06;;;;;;;13.52;11.15;;;12.60;99.90;;;;;;5017603;28;20259;-71
2023/04/23 03:22:31;;;;;;;12.77;11.07;;;12.60;99.90;;;;;;5010592;28;20185;-71
2023/04/23 03:24:57;;;;;;;14.02;11.48;;;12.60;99.90;;;;;;5005221;28;20265;-70
2023/04/23 03:27:25;;;;;;;13.68;11.48;;;12.60;99.90;;;;;;5008712;28;20178;-71
2023/04/23 03:29:50;;;;;;;13.60;10.65;;;12.60;99.90;;;;;;5014827;28;20202;-70
2023/04/23 03:32:16;;;;;;;12.07;10.18;;;12.60;99.90;;;;;;5001974;28;20195;-70
2023/04/23 03:34:44;;;;;;;12.73;10.88;;;12.60;99.90;;;;;;4995623;28;20210;-70
2023/04/23 03:37:12;;;;;;;10.45;9.05;;;12.60;99.90;;;;;;4995318;28;20186;-71
2023/04/23 03:39:38;;;;;;;12.65;9.45;;;12.60;99.90;;;;;;4995492;28;20175;-69
2023/04/23 03:42:04;;;;;;;11.00;9.02;;;12.60;99.90;;;;;;4987363;28;20261;-71
2023/04/23 03:44:32;;;;;;;9.95;8.25;;;12.60;99.90;;;;;;4998880;28;20167;-71
2023/04/23 03:46:59;;;;;;;10.15;8.32;;;12.60;99.90;;;;;;4998237;28;20282;-71
2023/04/23 03:49:26;;;;;;;9.52;8.25;;;12.70;99.90;;;;;;5010988;28;20217;-72
2023/04/23 03:51:51;;;;;;;8.75;7.43;;;12.70;99.90;;;;;;5003999;28;20186;-72
2023/04/23 03:54:18;;;;;;;8.60;7.70;;;12.70;99.90;;;;;;5001726;28;20175;-71
2023/04/23 03:56:48;;;;;;;10.50;8.73;;;12.70;99.90;;;;;;5007978;28;20195;-73
2023/04/23 03:59:14;;;;;;;9.65;8.52;;;12.70;99.90;;;;;;5014752;28;20179;-71
2023/04/23 04:01:39;;;;;;;11.10;8.93;;;12.80;99.90;;;;;;4998536;28;20205;-72
2023/04/23 04:04:05;;;;;;;12.18;9.80;;;12.70;99.90;;;;;;4996097;28;20203;-72
2023/04/23 04:06:33;;;;;;;10.40;9.23;;;12.80;99.90;;;;;;5004237;28;20175;-71
2023/04/23 04:08:59;;;;;;;11.70;9.40;;;12.80;99.90;;;;;;4998073;28;20194;-68
2023/04/23 04:11:27;;;;;;;10.27;8.82;;;12.90;99.90;;;;;;4998454;28;20179;-71
2023/04/23 04:13:55;;;;;;;12.20;10.35;;;12.90;99.90;;;;;;5015062;28;20178;-71
2023/04/23 04:16:20;;;;;;;11.65;9.65;;;12.90;99.90;;;;;;5006034;28;20214;-71
2023/04/23 04:18:46;;;;;;;12.50;10.40;;;13.00;99.90;;;;;;5014817;28;20225;-71
2023/04/23 04:21:14;;;;;;;12.60;10.55;;;13.00;99.90;;;;;;4998229;28;20248;-71
2023/04/23 04:23:40;;;;;;;13.02;11.02;;;13.00;99.90;;;;;;4998609;28;20178;-72
2023/04/23 04:26:06;;;;;;;11.40;9.77;;;13.00;99.90;;;;;;4997641;28;20178;-71
2023/04/23 04:28:36;;;;;;;11.55;9.57;;;13.00;99.90;;;;;;4997589;28;20175;-67
2023/04/23 04:31:04;;;;;;;11.18;9.35;;;13.00;99.90;;;;;;4997599;28;20437;-69
2023/04/23 04:33:34;;;;;;;9.75;8.48;;;13.10;99.90;;;;;;4997656;28;20175;-68
2023/04/23 04:36:00;;;;;;;10.10;9.05;;;13.10;99.90;;;;;;4994504;28;20206;-70
2023/04/23 04:38:27;;;;;;;11.07;9.38;;;13.10;99.90;;;;;;4994296;28;20261;-71
2023/04/23 04:41:00;;;;;;;10.05;8.20;;;13.10;99.90;;;;;;5014638;28;20197;-71
2023/04/23 04:43:26;;;;;;;8.88;7.72;;;13.20;99.90;;;;;;4994848;28;20182;-72
2023/04/23 04:45:52;;;;;;;8.30;7.43;;;13.20;99.90;;;;;;4998220;28;20183;-70
2023/04/23 04:48:18;;;;;;;10.23;8.18;;;13.20;99.90;;;;;;4994723;28;20217;-70
2023/04/23 04:50:43;;;;;;;10.10;8.07;;;13.20;99.90;;;;;;5000301;28;20281;-71
2023/04/23 04:53:12;;;;;;;8.38;7.28;;;13.20;99.90;;;;;;5020636;28;20174;-68
2023/04/23 04:55:37;;;;;;;9.60;7.28;;;13.20;99.90;;;;;;5004184;28;20221;-70
2023/04/23 04:58:05;;;;;;;7.93;6.97;;;13.30;99.90;;;;;;5000149;28;20203;-65
2023/04/23 05:00:31;;;;;;;7.22;6.40;;;13.30;99.90;;;;;;5007244;28;20183;-70
2023/04/23 05:02:57;;;;;;;7.07;6.18;;;13.30;99.90;;;;;;5016670;28;20178;-70
2023/04/23 05:05:26;;;;;;;6.38;5.70;;;13.40;99.90;;;;;;5013810;28;20189;-71
2023/04/23 05:07:53;;;;;;;6.43;5.70;;;13.30;99.90;;;;;;4992509;28;20187;-69
2023/04/23 05:10:19;;;;;;;6.63;5.55;;;13.40;99.90;;;;;;5016540;28;20217;-71
2023/04/23 05:12:47;;;;;;;6.60;5.75;;;13.40;99.90;;;;;;5000063;28;20253;-70
2023/04/23 05:15:13;;;;;;;5.72;5.13;;;13.50;99.90;;;;;;5015643;28;20178;-70
2023/04/23 05:17:42;;;;;;;6.35;5.35;;;13.50;99.90;;;;;;5017187;28;20201;-69
2023/04/23 05:20:26;;;;;;;6.93;5.57;;;13.60;99.90;;;;;;5094048;27;20554;-65
2023/04/23 05:22:52;;;;;;;6.25;5.25;;;13.60;99.90;;;;;;5124664;28;20228;-70
2023/04/23 05:25:18;;;;;;;5.15;4.50;;;13.70;99.90;;;;;;5103853;28;20191;-70
2023/04/23 05:27:43;;;;;;;5.10;4.60;;;13.70;99.90;;;;;;5107792;28;20168;-68
2023/04/23 05:30:10;;;;;;;4.95;4.45;;;13.80;99.90;;;;;;5089085;28;20347;-69
2023/04/23 05:32:36;;;;;;;5.05;4.35;;;13.80;99.90;;;;;;5091656;28;20175;-70
2023/04/23 05:35:05;;;;;;;5.07;4.57;;;13.80;99.90;;;;;;5094194;28;20183;-67
2023/04/23 05:37:31;;;;;;;5.65;5.10;;;13.80;99.90;;;;;;5102859;28;20199;-71
2023/04/23 05:39:57;;;;;;;4.82;4.35;;;13.90;99.90;;;;;;5088846;28;20268;-65
2023/04/23 05:42:23;;;;;;;4.85;4.35;;;14.00;99.90;;;;;;5137812;27;20235;-69
2023/04/23 05:44:48;;;;;;;4.90;4.40;;;14.00;99.90;;;;;;5089395;28;20196;-66
2023/04/23 05:47:14;;;;;;;5.13;4.40;;;14.00;99.90;;;;;;5124107;28;20183;-70
2023/04/23 05:49:42;;;;;;;4.47;4.03;;;14.10;99.90;;;;;;5084543;28;20171;-70
2023/04/23 05:52:08;;;;;;;4.82;4.28;;;14.10;99.90;;;;;;5076223;28;20190;-70
2023/04/23 05:54:33;;;;;;;4.13;3.72;;;14.20;99.90;;;;;;5123205;28;20262;-70
2023/04/23 05:57:00;;;;;;;4.20;3.83;;;14.20;99.90;;;;;;5092092;28;20175;-70
2023/04/23 05:59:25;;;;;;;4.32;3.92;;;14.30;99.90;;;;;;5075488;28;20265;-70
2023/04/23 06:01:51;;;;;;;4.40;3.92;;;14.30;99.90;;;;;;5074172;28;20168;-71
2023/04/23 06:04:17;;;;;;;4.10;3.67;;;14.40;99.90;;;;;;5081208;28;20175;-67
2023/04/23 06:06:43;;;;;;;3.90;3.50;;;14.40;99.90;;;;;;5081599;28;20176;-68
2023/04/23 06:09:11;;;;;;;3.67;3.22;;;14.50;99.90;;;;;;5089402;28;20231;-71
2023/04/23 06:11:37;;;;;;;4.03;3.63;;;14.50;99.90;;;;;;5114040;28;20171;-70
2023/04/23 06:14:03;;;;;;;4.25;3.63;;;14.60;99.90;;;;;;5092089;28;20179;-71
2023/04/23 06:16:29;;;;;;;3.83;3.38;;;14.60;99.90;;;;;;5073682;28;20239;-70
2023/04/23 06:18:57;;;;;;;4.20;3.80;;;14.60;99.90;;;;;;5116157;28;20325;-72
2023/04/23 06:21:23;;;;;;;4.53;3.65;;;14.60;99.90;;;;;;5073680;28;20168;-71
2023/04/23 06:23:51;;;;;;;4.18;3.78;;;14.70;99.90;;;;;;5087875;28;20209;-71
2023/04/23 06:26:17;;;;;;;4.22;3.42;;;14.70;99.90;;;;;;5082312;28;20267;-70
2023/04/23 06:28:46;;;;;;;4.05;3.30;;;14.70;99.90;;;;;;5073922;28;20275;-71
2023/04/23 06:31:14;;;;;;;3.85;2.92;;;14.80;99.90;;;;;;5082980;28;20176;-70
2023/04/23 06:33:42;;;;;;;3.70;3.40;;;14.80;99.90;;;;;;5073211;28;20180;-70
2023/04/23 06:36:10;;;;;;;3.13;2.83;;;14.80;99.90;;;;;;5061883;28;20205;-68
2023/04/23 06:38:39;;;;;;;4.32;3.42;;;14.90;99.90;;;;;;5094246;28;20197;-70
2023/04/23 06:41:07;;;;;;;3.38;3.05;;;14.90;99.90;;;;;;5069202;28;20184;-71
2023/04/23 06:43:34;;;;;;;3.50;3.08;;;14.90;99.90;;;;;;5067328;28;20196;-70
2023/04/23 06:46:00;;;;;;;3.05;2.75;;;14.90;99.90;;;;;;5083131;28;20202;-69
2023/04/23 06:48:28;;;;;;;3.70;3.35;;;15.00;99.90;;;;;;5077833;28;20176;-70
2023/04/23 06:50:54;;;;;;;3.33;2.92;;;15.00;99.90;;;;;;5069963;28;20283;-69
2023/04/23 06:53:22;;;;;;;3.05;2.75;;;15.00;99.90;;;;;;5092423;28;20230;-70
2023/04/23 06:55:49;;;;;;;3.10;2.80;;;15.00;99.90;;;;;;5072618;28;20180;-70
2023/04/23 06:58:14;;;;;;;5.00;3.00;;;15.00;99.90;;;;;;5060329;28;20269;-70
2023/04/23 07:00:43;;;;;;;3.08;2.53;;;15.00;99.90;;;;;;5093988;28;20266;-68
2023/04/23 07:03:08;;;;;;;2.60;2.40;;;15.00;99.90;;;;;;5088923;28;20180;-69
2023/04/23 07:05:34;;;;;;;3.33;2.80;;;15.10;99.90;;;;;;5060227;28;20249;-69
2023/04/23 07:07:59;;;;;;;4.00;3.17;;;15.00;99.90;;;;;;5068725;28;20259;-69
2023/04/23 07:10:25;;;;;;;3.05;2.75;;;15.10;99.90;;;;;;5065979;28;20325;-69
2023/04/23 07:12:53;;;;;;;2.80;2.53;;;15.10;99.90;;;;;;5062006;28;20188;-69
2023/04/23 07:15:21;;;;;;;2.85;2.45;;;15.10;99.90;;;;;;5080038;28;20541;-69
2023/04/23 07:17:49;;;;;;;2.90;2.20;;;15.20;99.90;;;;;;5087250;28;20278;-66
2023/04/23 07:20:17;;;;;;;2.75;2.30;;;15.30;99.90;;;;;;5063689;28;20204;-68
2023/04/23 07:22:49;;;;;;;3.58;2.22;;;15.30;99.90;;;;;;5080911;28;20169;-69
2023/04/23 07:25:15;;;;;;;2.50;2.08;;;15.30;99.90;;;;;;5074213;28;20187;-68
2023/04/23 07:27:41;;;;;;;2.25;2.05;;;15.40;99.90;;;;;;5093171;28;20176;-69
2023/04/23 07:30:08;;;;;;;2.97;2.53;;;15.40;99.90;;;;;;5105864;28;20195;-69
2023/04/23 07:32:33;;;;;;;2.63;2.42;;;15.50;99.90;;;;;;5063982;28;20184;-68
2023/04/23 07:34:59;;;;;;;3.20;2.10;;;15.50;99.90;;;;;;5073261;28;20176;-66
2023/04/23 07:37:27;;;;;;;2.60;2.38;;;15.50;99.90;;;;;;5076274;28;20259;-68
2023/04/23 07:39:52;;;;;;;3.30;2.60;;;15.50;99.90;;;;;;5069230;28;20231;-68
2023/04/23 07:42:20;;;;;;;3.03;2.33;;;15.60;99.90;;;;;;5071616;28;20169;-69
2023/04/23 07:44:51;;;;;;;3.00;2.53;;;15.60;99.90;;;;;;5071236;28;20179;-69
2023/04/23 07:47:18;;;;;;;3.38;2.80;;;15.70;99.90;;;;;;5063475;28;20168;-70
2023/04/23 07:49:46;;;;;;;2.72;2.45;;;15.70;99.90;;;;;;5093755;28;20240;-69
2023/04/23 07:52:12;;;;;;;2.58;2.30;;;15.70;99.90;;;;;;5067184;28;20177;-65
2023/04/23 07:54:40;;;;;;;3.25;2.72;;;15.80;99.90;;;;;;5064773;28;20181;-69
2023/04/23 07:57:09;;;;;;;2.42;2.22;;;15.80;99.90;;;;;;5074852;28;20176;-69
2023/04/23 07:59:34;;;;;;;2.83;2.47;;;15.90;99.90;;;;;;5107930;28;20249;-69
2023/04/23 08:02:00;;;;;;;3.00;2.60;;;16.00;99.90;;;;;;5072990;28;20168;-69
2023/04/23 08:04:25;;;;;;;2.92;2.53;;;16.10;99.90;;;;;;5071881;28;20188;-70
2023/04/23 08:06:51;;;;;;;3.67;2.55;;;16.20;99.90;;;;;;5076495;28;20211;-71
2023/04/23 08:09:17;;;;;;;4.70;2.35;;;16.40;99.90;;;;;;5061773;28;20272;-69
2023/04/23 08:11:43;;;;;;;5.00;2.45;;;16.50;99.90;;;;;;5098790;28;20207;-70
2023/04/23 08:14:09;;;;;;;3.03;2.53;;;16.60;99.90;;;;;;5072289;28;20196;-71
2023/04/23 08:16:35;;;;;;;3.53;2.10;;;16.70;99.90;;;;;;5117405;28;20184;-65
2023/04/23 08:19:01;;;;;;;4.32;2.63;;;16.80;99.90;;;;;;5085642;28;20218;-70
2023/04/23 08:21:28;;;;;;;2.40;2.20;;;16.90;99.90;;;;;;5118810;28;20188;-69
2023/04/23 08:23:56;;;;;;;2.60;2.40;;;17.00;99.90;;;;;;5106533;28;20299;-70
2023/04/23 08:26:23;;;;;;;2.60;2.17;;;17.10;99.90;;;;;;5076770;28;20182;-69
2023/04/23 08:28:49;;;;;;;3.13;2.10;;;17.20;99.90;;;;;;5099614;28;20196;-71
2023/04/23 08:31:16;;;;;;;3.83;2.50;;;17.30;99.90;;;;;;5099596;28;20171;-70
2023/04/23 08:33:43;;;;;;;4.13;2.58;;;17.30;99.90;;;;;;5099017;28;20175;-69
2023/04/23 08:36:09;;;;;;;4.00;2.63;;;17.40;99.90;;;;;;5078774;28;20205;-69
2023/04/23 08:38:39;;;;;;;3.08;2.60;;;17.40;99.90;;;;;;5102557;28;20274;-71
2023/04/23 08:41:09;;;;;;;2.83;2.38;;;17.40;99.90;;;;;;5074157;28;20199;-69
2023/04/23 08:43:50;;;;;;;3.10;2.20;;;17.50;99.90;;;;;;5058478;28;20193;-70
2023/04/23 08:46:18;;;;;;;3.45;2.60;;;17.50;99.90;;;;;;5075206;28;20171;-69
2023/04/23 08:48:46;;;;;;;3.78;2.30;;;17.60;99.90;;;;;;5066255;28;20244;-70
2023/04/23 08:51:19;;;;;;;3.60;2.40;;;17.60;99.90;;;;;;5065442;28;20199;-69
2023/04/23 08:53:49;;;;;;;4.10;2.30;;;17.70;99.90;;;;;;5098581;28;20309;-70
2023/04/23 08:56:17;;;;;;;2.83;2.28;;;17.70;99.90;;;;;;5083858;28;20172;-70
2023/04/23 08:58:46;;;;;;;2.38;1.95;;;17.80;99.90;;;;;;5078148;28;20299;-71
2023/04/23 09:01:11;;;;;;;2.50;2.08;;;17.80;99.90;;;;;;5077934;28;20181;-69
2023/04/23 09:03:39;;;;;;;2.75;2.00;;;17.90;99.90;;;;;;5078212;28;20345;-70
2023/04/23 09:06:05;;;;;;;3.22;1.63;;;17.90;99.90;;;;;;5059626;28;20204;-69
2023/04/23 09:08:31;;;;;;;2.38;1.70;;;18.00;99.90;;;;;;5064010;28;20176;-69
2023/04/23 09:11:01;;;;;;;2.03;1.73;;;18.00;99.90;;;;;;5091424;28;20198;-70
2023/04/23 09:13:28;;;;;;;2.60;1.70;;;18.10;99.90;;;;;;5071571;28;20236;-68
2023/04/23 09:15:59;;;;;;;3.30;1.77;;;18.10;99.90;;;;;;5058269;28;20219;-70
2023/04/23 09:18:27;;;;;;;3.45;1.90;;;18.20;99.90;;;;;;5057659;28;20232;-70
2023/04/23 09:20:53;;;;;;;2.33;1.58;;;18.20;99.90;;;;;;5068766;28;20179;-69
2023/04/23 09:23:21;;;;;;;2.88;1.30;;;18.30;99.90;;;;;;5073456;28;20178;-70
2023/04/23 09:25:47;;;;;;;2.00;1.48;;;18.30;99.90;;;;;;5076038;28;20291;-71
2023/04/23 09:28:13;;;;;;;3.35;1.65;;;18.30;99.90;;;;;;5063769;28;20196;-70
2023/04/23 09:30:43;;;;;;;6.55;1.90;;;18.30;99.90;;;;;;5057956;28;20176;-70
2023/04/23 09:33:15;;;;;;;2.53;1.50;;;18.30;99.90;;;;;;5067043;28;20291;-70
2023/04/23 09:35:42;;;;;;;2.75;1.50;;;18.40;99.90;;;;;;5078033;28;20184;-69
2023/04/23 09:38:10;;;;;;;3.13;1.45;;;18.40;99.90;;;;;;5094746;28;20171;-69
2023/04/23 09:40:37;;;;;;;2.22;1.30;;;18.50;99.90;;;;;;5061261;28;20238;-68
2023/04/23 09:43:09;;;;;;;2.13;1.33;;;18.60;99.90;;;;;;5087275;28;20175;-68
2023/04/23 09:45:46;;;;;;;1.73;1.60;;;18.70;99.90;;;;;;5071307;28;20180;-68
2023/04/23 09:48:11;;;;;;;2.13;1.58;;;18.70;99.90;;;;;;5077118;28;20225;-69
2023/04/23 09:50:40;;;;;;;2.22;1.45;;;18.70;99.90;;;;;;5062229;28;20374;-69
2023/04/23 09:53:08;;;;;;;3.00;1.55;;;18.70;99.90;;;;;;5057435;28;20281;-70
2023/04/23 09:55:37;;;;;;;2.97;1.55;;;18.80;99.90;;;;;;5057739;28;20200;-69
2023/04/23 09:58:06;;;;;;;2.58;1.30;;;18.80;99.90;;;;;;5065624;28;20248;-65
2023/04/23 10:00:39;;;;;;;2.03;1.40;;;18.80;99.90;;;;;;5068315;28;20197;-68
2023/04/23 10:03:08;;;;;;;2.67;1.23;;;18.90;99.90;;;;;;5094723;28;20196;-69
2023/04/23 10:05:42;;;;;;;3.03;1.60;;;18.90;99.90;;;;;;5078819;28;20175;-68
2023/04/23 10:08:12;;;;;;;2.45;1.45;;;18.90;99.90;;;;;;5064171;28;20180;-68
2023/04/23 10:10:38;;;;;;;2.00;1.30;;;18.90;99.90;;;;;;5070347;28;20266;-67
2023/04/23 10:13:04;;;;;;;3.90;1.40;;;19.00;99.90;;;;;;5110554;28;20200;-68
2023/04/23 10:15:31;;;;;;;2.28;1.27;;;19.30;99.90;;;;;;5080227;28;20168;-69
2023/04/23 10:17:58;;;;;;;2.45;1.40;;;19.60;99.90;;;;;;5075431;28;20173;-70
2023/04/23 10:20:25;;;;;;;2.83;1.20;;;19.80;99.90;;;;;;5066018;28;20212;-69
2023/04/23 10:22:56;;;;;;;2.00;1.20;;;19.90;99.90;;;;;;5061322;28;20165;-69
2023/04/23 10:25:25;;;;;;;2.15;1.20;;;19.90;99.90;;;;;;5061063;28;20204;-70
2023/04/23 10:27:53;;;;;;;2.05;1.25;;;19.80;99.90;;;;;;5060090;28;20165;-69
2023/04/23 10:30:20;;;;;;;2.05;1.45;;;19.70;99.90;;;;;;5065573;28;20175;-69
2023/04/23 10:32:50;;;;;;;1.98;1.00;;;19.60;99.90;;;;;;5060489;28;20200;-69
2023/04/23 10:35:17;;;;;;;4.10;1.10;;;19.60;99.90;;;;;;5087752;28;20229;-69
2023/04/23 10:37:48;;;;;;;3.15;1.10;;;19.50;99.90;;;;;;5079400;28;20267;-69
2023/04/23 10:40:17;;;;;;;2.28;1.20;;;19.60;99.90;;;;;;5074524;28;20208;-69
2023/04/23 10:42:44;;;;;;;1.80;1.35;;;19.70;99.90;;;;;;5097927;28;20172;-69
2023/04/23 10:45:18;;;;;;;1.50;1.30;;;19.70;99.90;;;;;;5059866;28;20234;-69
2023/04/23 10:47:45;;;;;;;2.47;1.20;;;19.70;99.90;;;;;;5107049;28;20195;-69
2023/04/23 10:50:35;;;;;;;2.50;1.08;;;19.70;99.90;;;;;;5063261;28;20177;-69
2023/04/23 10:53:02;;;;;;;3.63;1.10;;;19.60;99.90;;;;;;5063814;28;20200;-69
2023/04/23 10:55:30;;;;;;;1.35;1.02;;;19.60;99.90;;;;;;5079046;28;20191;-69
2023/04/23 10:58:02;;;;;;;2.38;1.20;;;19.50;99.90;;;;;;5078461;28;20176;-69
2023/04/23 11:00:42;;;;;;;5.90;1.33;;;19.50;99.90;;;;;;5076180;28;20240;-65
2023/04/23 11:03:33;;;;;;;2.13;1.30;;;19.50;99.90;;;;;;5099661;28;20189;-69
2023/04/23 11:06:05;;;;;;;2.20;1.10;;;19.40;99.90;;;;;;5094317;28;20238;-68
2023/04/23 11:08:34;;;;;;;2.95;1.30;;;19.40;99.90;;;;;;5061684;28;20195;-69
2023/04/23 11:11:05;;;;;;;1.60;1.10;;;19.40;99.90;;;;;;5094408;28;20191;-70
2023/04/23 11:13:31;;;;;;;3.15;1.10;;;19.40;99.90;;;;;;5075236;28;20267;-67
2023/04/23 11:16:21;;;;;;;2.88;1.25;;;19.40;99.90;;;;;;5066355;28;20264;-70
2023/04/23 11:19:02;;;;;;;2.58;1.02;;;19.50;99.90;;;;;;5092622;28;20204;-69
2023/04/23 11:22:20;;;;;;;1.73;0.98;;;19.50;99.90;;;;;;5092817;28;20361;-69
2023/04/23 11:24:46;;;;;;;2.55;0.90;;;19.60;99.90;;;;;;4993995;28;20181;-69
2023/04/23 11:27:14;;;;;;;1.35;0.88;;;19.60;99.90;;;;;;5057442;28;20295;-68
2023/04/23 11:29:42;;;;;;;1.88;1.00;;;19.60;99.90;;;;;;5075342;28;20207;-69
2023/04/23 11:32:11;;;;;;;4.03;1.45;;;19.60;99.90;;;;;;5078885;28;20178;-66
2023/04/23 11:34:43;;;;;;;2.75;1.20;;;19.60;99.90;;;;;;5075105;28;20298;-69
2023/04/23 11:37:10;;;;;;;3.42;1.23;;;19.70;99.90;;;;;;5076993;28;20283;-67
2023/04/23 11:39:44;;;;;;;3.33;1.35;;;19.80;99.90;;;;;;5058658;28;20216;-69
2023/04/23 11:42:18;;;;;;;1.88;1.05;;;19.90;99.90;;;;;;5076374;28;20191;-70
2023/04/23 11:44:45;;;;;;;1.98;0.90;;;20.00;99.90;;;;;;5066676;28;20176;-66
2023/04/23 11:47:13;;;;;;;1.70;1.00;;;20.20;99.90;;;;;;5063946;28;20199;-69
2023/04/23 11:49:42;;;;;;;3.28;1.05;;;20.30;99.90;;;;;;5092422;28;20196;-69
2023/04/23 11:52:08;;;;;;;2.13;0.90;;;20.30;99.90;;;;;;5101281;28;20180;-68
2023/04/23 11:54:35;;;;;;;1.80;0.88;;;20.40;99.90;;;;;;5078740;28;20196;-68
2023/04/23 11:57:03;;;;;;;2.22;1.00;;;20.40;99.90;;;;;;5086267;28;20179;-68
2023/04/23 11:59:33;;;;;;;2.45;1.00;;;20.50;99.90;;;;;;5104339;28;20200;-68
2023/04/23 12:02:04;;;;;;;2.30;1.02;;;20.60;99.90;;;;;;5076269;28;20207;-69
2023/04/23 12:04:31;;;;;;;2.00;0.70;;;20.70;99.90;;;;;;5065846;28;20187;-69
2023/04/23 12:06:58;;;;;;;1.95;1.00;;;20.70;99.90;;;;;;5066312;28;20413;-68
2023/04/23 12:09:28;;;;;;;4.47;1.00;;;20.80;99.90;;;;;;5078575;28;20175;-69
2023/04/23 12:11:59;;;;;;;2.65;1.02;;;20.90;99.90;;;;;;5072585;28;20215;-67
2023/04/23 12:14:32;;;;;;;2.78;1.08;;;21.00;99.90;;;;;;5073898;28;20215;-69
2023/04/23 12:17:07;;;;;;;3.05;1.20;;;21.10;99.90;;;;;;5068037;28;20203;-68
2023/04/23 12:19:33;;;;;;;1.70;0.90;;;21.10;99.90;;;;;;5071944;28;20215;-69
2023/04/23 12:22:02;;;;;;;3.35;1.10;;;21.20;99.90;;;;;;5108520;28;20176;-68
2023/04/23 12:24:50;;;;;;;1.33;0.85;;;21.30;99.90;;;;;;5060072;28;20176;-69
2023/04/23 12:27:19;;;;;;;1.63;0.85;;;21.30;99.90;;;;;;5060535;28;20220;-69
2023/04/23 12:29:46;;;;;;;2.30;0.80;;;21.40;99.90;;;;;;5062567;28;20177;-69
2023/04/23 12:32:17;;;;;;;2.38;1.00;;;21.50;99.90;;;;;;5077442;28;20191;-69
2023/04/23 12:34:56;;;;;;;1.80;1.05;;;21.60;99.90;;;;;;5069555;28;20292;-69
2023/04/23 12:37:28;;;;;;;1.23;0.70;;;21.70;99.90;;;;;;5071896;28;20180;-69
2023/04/23 12:39:57;;;;;;;1.70;1.10;;;21.80;99.90;;;;;;5073397;28;20208;-69
2023/04/23 12:42:24;;;;;;;1.75;0.77;;;22.00;99.90;;;;;;5104238;28;20164;-69
2023/04/23 12:44:50;;;;;;;1.35;0.80;;;21.90;99.90;;;;;;5074312;28;20200;-67
2023/04/23 12:47:19;;;;;;;1.50;0.85;;;22.00;99.90;;;;;;5057471;28;20200;-69